createdAt,value
2022-07-29T00:00:28.059Z,4.70
2022-07-29T00:01:39.060Z,4.50
2022-07-29T00:02:42.226Z,4.70
2022-07-29T00:03:45.559Z,4.80
2022-07-29T00:04:48.655Z,4.40
2022-07-29T00:05:54.177Z,4.60
2022-07-29T00:06:57.383Z,4.80
2022-07-29T00:08:00.476Z,4.80
2022-07-29T00:09:04.025Z,4.40
2022-07-29T00:10:07.221Z,4.40
2022-07-29T00:11:10.359Z,4.40
2022-07-29T00:12:13.394Z,4.10
2022-07-29T00:13:17.105Z,4.20
2022-07-29T00:14:20.265Z,4.40
2022-07-29T00:15:23.341Z,4.30
2022-07-29T00:16:26.511Z,4.40
2022-07-29T00:17:29.830Z,4.50
2022-07-29T00:18:33.375Z,4.80
2022-07-29T00:19:36.658Z,4.40
2022-07-29T00:20:40.094Z,4.30
2022-07-29T00:21:43.597Z,4.60
2022-07-29T00:22:46.826Z,4.60
2022-07-29T00:23:50.029Z,4.30
2022-07-29T00:24:53.196Z,4.70
2022-07-29T00:25:59.150Z,4.40
2022-07-29T00:27:02.270Z,4.50
2022-07-29T00:28:05.792Z,4.50
2022-07-29T00:30:32.045Z,4.10
2022-07-29T00:31:35.187Z,4.30
2022-07-29T00:32:38.457Z,3.80
2022-07-29T00:33:41.896Z,4.20
2022-07-29T00:35:08.803Z,4.10
2022-07-29T00:36:12.148Z,4.00
2022-07-29T00:37:15.367Z,4.30
2022-07-29T00:38:50.925Z,4.20
2022-07-29T00:39:54.147Z,4.40
2022-07-29T00:40:57.318Z,4.50
2022-07-29T00:42:04.332Z,4.20
2022-07-29T00:43:07.526Z,4.50
2022-07-29T00:44:11.642Z,4.50
2022-07-29T00:45:24.453Z,4.30
2022-07-29T00:46:28.643Z,4.20
2022-07-29T00:47:38.872Z,4.10
2022-07-29T00:48:48.728Z,3.90
2022-07-29T00:49:51.903Z,4.20
2022-07-29T00:50:56.068Z,4.40
2022-07-29T00:51:59.433Z,3.90
2022-07-29T00:53:06.579Z,3.90
2022-07-29T00:54:09.883Z,4.00
2022-07-29T00:55:15.978Z,3.70
2022-07-29T00:56:19.121Z,4.00
2022-07-29T00:57:22.278Z,4.20
2022-07-29T00:58:26.169Z,3.90
2022-07-29T00:59:35.084Z,4.50
2022-07-29T01:00:38.724Z,4.40
2022-07-29T01:01:42.100Z,4.40
2022-07-29T01:02:46.436Z,4.00
2022-07-29T01:03:49.496Z,4.30
2022-07-29T01:04:52.835Z,4.20
2022-07-29T01:05:56.254Z,4.20
2022-07-29T01:07:01.794Z,4.20
2022-07-29T01:08:05.612Z,4.00
2022-07-29T01:09:08.999Z,4.10
2022-07-29T01:10:14.376Z,4.20
2022-07-29T01:11:19.180Z,4.00
2022-07-29T01:12:29.621Z,4.00
2022-07-29T01:13:34.460Z,4.10
2022-07-29T01:14:38.759Z,4.20
2022-07-29T01:15:49.492Z,4.20
2022-07-29T01:18:03.750Z,4.20
2022-07-29T01:19:38.351Z,4.20
2022-07-29T01:20:53.130Z,3.90
2022-07-29T01:22:00.282Z,4.20
2022-07-29T01:23:28.741Z,4.30
2022-07-29T01:24:53.976Z,4.00
2022-07-29T01:26:16.879Z,4.20
2022-07-29T01:27:24.040Z,3.70
2022-07-29T01:29:01.402Z,4.00
2022-07-29T01:30:11.945Z,3.90
2022-07-29T01:31:25.104Z,3.80
2022-07-29T01:32:32.773Z,4.10
2022-07-29T01:33:51.383Z,4.00
2022-07-29T01:35:08.002Z,3.70
2022-07-29T01:36:18.739Z,4.20
2022-07-29T01:37:42.651Z,3.90
2022-07-29T01:38:55.303Z,4.30
2022-07-29T01:40:00.960Z,4.40
2022-07-29T01:41:08.946Z,4.40
2022-07-29T01:42:29.185Z,4.10
2022-07-29T01:43:45.397Z,4.20
2022-07-29T01:44:55.432Z,4.10
2022-07-29T01:46:04.544Z,4.20
2022-07-29T01:47:16.907Z,4.00
2022-07-29T01:48:25.500Z,4.10
2022-07-29T01:49:32.757Z,4.10
2022-07-29T01:50:39.666Z,3.90
2022-07-29T01:51:58.460Z,4.00
2022-07-29T01:53:08.291Z,4.00
2022-07-29T01:54:22.519Z,4.00
2022-07-29T01:55:31.070Z,4.30
2022-07-29T01:56:36.348Z,4.50
2022-07-29T01:57:41.632Z,4.00
2022-07-29T01:58:46.863Z,4.10
2022-07-29T01:59:52.296Z,3.90
2022-07-29T02:00:58.628Z,3.80
2022-07-29T02:02:02.935Z,4.10
2022-07-29T02:03:12.392Z,4.00
2022-07-29T02:04:18.565Z,4.00
2022-07-29T02:05:35.446Z,3.90
2022-07-29T02:06:42.005Z,4.00
2022-07-29T02:07:47.512Z,4.20
2022-07-29T02:08:52.472Z,4.10
2022-07-29T02:09:58.716Z,4.00
2022-07-29T02:11:05.655Z,4.20
2022-07-29T02:12:11.048Z,3.80
2022-07-29T02:13:16.821Z,4.20
2022-07-29T02:14:22.690Z,4.00
2022-07-29T02:15:28.760Z,4.20
2022-07-29T02:16:34.857Z,4.20
2022-07-29T02:17:50.120Z,3.90
2022-07-29T02:18:55.471Z,3.80
2022-07-29T02:20:03.090Z,4.00
2022-07-29T02:21:06.693Z,3.90
2022-07-29T02:22:20.820Z,3.80
2022-07-29T02:23:25.584Z,4.00
2022-07-29T02:24:31.042Z,4.10
2022-07-29T02:25:37.315Z,4.00
2022-07-29T02:26:44.317Z,3.90
2022-07-29T02:27:50.211Z,4.10
2022-07-29T02:28:56.362Z,4.30
2022-07-29T02:30:01.746Z,3.80
2022-07-29T02:31:07.853Z,4.40
2022-07-29T02:32:14.330Z,4.20
2022-07-29T02:33:18.501Z,4.30
2022-07-29T02:34:22.421Z,4.20
2022-07-29T02:35:26.297Z,4.40
2022-07-29T02:36:31.006Z,4.30
2022-07-29T02:37:35.012Z,4.40
2022-07-29T02:38:58.831Z,3.90
2022-07-29T02:40:03.205Z,3.60
2022-07-29T02:41:16.424Z,3.90
2022-07-29T02:42:22.145Z,4.20
2022-07-29T02:43:27.109Z,3.80
2022-07-29T02:44:34.478Z,4.30
2022-07-29T02:45:38.097Z,4.00
2022-07-29T02:46:47.649Z,4.10
2022-07-29T02:47:52.036Z,4.40
2022-07-29T02:49:04.333Z,4.40
2022-07-29T02:50:14.564Z,3.80
2022-07-29T02:51:43.370Z,4.30
2022-07-29T02:52:53.625Z,4.00
2022-07-29T02:54:05.517Z,3.80
2022-07-29T02:55:16.194Z,4.10
2022-07-29T02:56:25.253Z,4.20
2022-07-29T02:57:53.985Z,3.70
2022-07-29T02:59:02.200Z,3.90
2022-07-29T03:00:09.862Z,4.00
2022-07-29T03:01:21.528Z,4.20
2022-07-29T03:02:28.241Z,3.80
2022-07-29T03:03:37.036Z,4.30
2022-07-29T03:04:42.822Z,4.20
2022-07-29T03:05:46.040Z,4.40
2022-07-29T03:06:50.992Z,4.20
2022-07-29T03:07:59.790Z,4.20
2022-07-29T03:09:03.324Z,3.80
2022-07-29T03:10:07.967Z,3.90
2022-07-29T03:11:18.194Z,3.80
2022-07-29T03:12:21.660Z,4.00
2022-07-29T03:13:25.205Z,3.90
2022-07-29T03:14:29.262Z,3.90
2022-07-29T03:15:33.105Z,3.60
2022-07-29T03:16:41.167Z,3.80
2022-07-29T03:17:44.678Z,4.00
2022-07-29T03:18:48.630Z,3.90
2022-07-29T03:19:52.198Z,3.90
2022-07-29T03:20:56.041Z,4.00
2022-07-29T03:21:59.975Z,3.80
2022-07-29T03:23:03.463Z,4.30
2022-07-29T03:24:10.266Z,4.20
2022-07-29T03:25:19.203Z,4.00
2022-07-29T03:26:22.339Z,4.20
2022-07-29T03:27:25.429Z,4.20
2022-07-29T03:28:28.524Z,4.10
2022-07-29T03:29:33.712Z,3.90
2022-07-29T03:30:37.593Z,4.00
2022-07-29T03:31:44.051Z,4.30
2022-07-29T03:32:53.672Z,3.90
2022-07-29T03:33:57.018Z,4.20
2022-07-29T03:35:00.039Z,4.40
2022-07-29T03:36:03.669Z,4.20
2022-07-29T03:37:07.493Z,4.10
2022-07-29T03:38:10.681Z,4.40
2022-07-29T03:39:20.977Z,4.00
2022-07-29T03:40:52.855Z,4.40
2022-07-29T03:41:58.411Z,3.80
2022-07-29T03:43:03.609Z,3.90
2022-07-29T03:44:08.977Z,3.80
2022-07-29T03:45:18.853Z,4.00
2022-07-29T03:46:24.683Z,3.70
2022-07-29T03:47:49.811Z,4.20
2022-07-29T03:48:59.675Z,4.00
2022-07-29T03:50:12.076Z,3.60
2022-07-29T03:51:15.434Z,3.40
2022-07-29T03:52:21.842Z,4.00
2022-07-29T03:53:25.090Z,4.00
2022-07-29T03:54:28.428Z,3.90
2022-07-29T03:55:38.859Z,4.40
2022-07-29T03:56:49.710Z,4.10
2022-07-29T03:57:53.062Z,4.40
2022-07-29T03:58:57.295Z,4.60
2022-07-29T04:00:02.459Z,4.30
2022-07-29T04:01:06.125Z,4.60
2022-07-29T04:02:12.151Z,4.30
2022-07-29T04:03:15.727Z,4.10
2022-07-29T04:04:19.699Z,4.50
2022-07-29T04:05:22.970Z,4.00
2022-07-29T04:06:26.914Z,4.30
2022-07-29T04:07:30.901Z,4.70
2022-07-29T04:08:34.704Z,4.20
2022-07-29T04:09:37.919Z,4.60
2022-07-29T04:10:40.953Z,4.10
2022-07-29T04:12:03.451Z,4.40
2022-07-29T04:13:07.328Z,4.20
2022-07-29T04:14:10.674Z,4.30
2022-07-29T04:15:13.827Z,4.50
2022-07-29T04:16:16.945Z,4.20
2022-07-29T04:17:20.115Z,4.20
2022-07-29T04:18:23.404Z,4.30
2022-07-29T04:19:26.553Z,4.10
2022-07-29T04:20:29.719Z,4.10
2022-07-29T04:21:38.488Z,4.60
2022-07-29T04:22:42.242Z,4.40
2022-07-29T04:23:53.010Z,4.00
2022-07-29T04:25:00.343Z,4.20
2022-07-29T04:26:06.928Z,4.20
2022-07-29T04:27:11.760Z,4.00
2022-07-29T04:28:16.086Z,4.30
2022-07-29T04:29:21.004Z,4.30
2022-07-29T04:30:24.603Z,4.10
2022-07-29T04:31:28.152Z,4.20
2022-07-29T04:32:31.235Z,4.10
2022-07-29T04:33:37.146Z,3.90
2022-07-29T04:34:40.187Z,4.30
2022-07-29T04:35:47.164Z,4.20
2022-07-29T04:36:53.782Z,4.20
2022-07-29T04:37:56.990Z,4.20
2022-07-29T04:39:02.629Z,4.20
2022-07-29T04:40:06.544Z,4.10
2022-07-29T04:41:09.891Z,4.50
2022-07-29T04:42:14.496Z,4.30
2022-07-29T04:43:22.472Z,4.70
2022-07-29T04:44:29.126Z,4.60
2022-07-29T04:45:32.419Z,4.90
2022-07-29T04:46:36.362Z,4.50
2022-07-29T04:47:39.504Z,4.60
2022-07-29T04:48:42.918Z,4.80
2022-07-29T04:49:48.549Z,4.30
2022-07-29T04:50:51.796Z,4.20
2022-07-29T04:51:55.117Z,4.40
2022-07-29T04:52:58.695Z,4.60
2022-07-29T04:54:02.784Z,4.40
2022-07-29T04:55:06.884Z,4.50
2022-07-29T04:56:10.083Z,4.60
2022-07-29T04:57:13.090Z,4.50
2022-07-29T04:58:16.637Z,4.90
2022-07-29T04:59:19.789Z,4.50
2022-07-29T05:00:24.253Z,4.40
2022-07-29T05:01:36.282Z,4.60
2022-07-29T05:02:39.841Z,4.50
2022-07-29T05:03:43.371Z,4.60
2022-07-29T05:04:46.488Z,4.30
2022-07-29T05:05:49.630Z,4.40
2022-07-29T05:06:52.795Z,4.40
2022-07-29T05:07:56.478Z,4.50
2022-07-29T05:08:59.572Z,4.10
2022-07-29T05:10:02.703Z,4.20
2022-07-29T05:11:12.087Z,4.60
2022-07-29T05:12:17.653Z,4.20
2022-07-29T05:13:20.769Z,4.30
2022-07-29T05:14:23.844Z,4.00
2022-07-29T05:15:27.365Z,4.00
2022-07-29T05:16:30.450Z,4.00
2022-07-29T05:17:33.564Z,4.30
2022-07-29T05:18:36.730Z,4.40
2022-07-29T05:19:39.932Z,4.60
2022-07-29T05:20:43.139Z,4.10
2022-07-29T05:21:46.271Z,4.30
2022-07-29T05:22:50.043Z,4.50
2022-07-29T05:23:53.101Z,4.70
2022-07-29T05:24:56.209Z,4.90
2022-07-29T05:25:59.346Z,5.00
2022-07-29T05:27:03.426Z,4.80
2022-07-29T05:28:06.604Z,4.60
2022-07-29T05:29:42.595Z,4.60
2022-07-29T05:30:33.061Z,4.30
2022-07-29T05:31:36.334Z,4.20
2022-07-29T05:32:39.442Z,4.40
2022-07-29T05:33:42.964Z,3.90
2022-07-29T05:34:51.423Z,4.20
2022-07-29T05:35:59.946Z,4.20
2022-07-29T05:37:03.747Z,4.30
2022-07-29T05:38:06.879Z,4.30
2022-07-29T05:39:10.649Z,4.60
2022-07-29T05:40:13.766Z,4.30
2022-07-29T05:41:16.874Z,4.40
2022-07-29T05:42:19.976Z,4.60
2022-07-29T05:43:23.144Z,4.60
2022-07-29T05:44:26.405Z,4.70
2022-07-29T05:45:29.651Z,4.80
2022-07-29T05:46:32.798Z,4.30
2022-07-29T05:47:36.086Z,4.30
2022-07-29T05:48:40.145Z,4.90
2022-07-29T05:49:43.291Z,4.60
2022-07-29T05:50:46.586Z,4.60
2022-07-29T05:51:50.479Z,4.20
2022-07-29T05:52:53.665Z,4.20
2022-07-29T05:53:56.859Z,4.00
2022-07-29T05:55:00.264Z,4.00
2022-07-29T05:56:06.880Z,4.10
2022-07-29T05:57:15.969Z,4.40
2022-07-29T05:58:19.430Z,4.30
2022-07-29T05:59:25.953Z,4.70
2022-07-29T06:00:31.705Z,4.00
2022-07-29T06:01:34.942Z,4.30
2022-07-29T06:02:40.447Z,4.60
2022-07-29T06:03:44.279Z,4.70
2022-07-29T06:04:50.171Z,4.80
2022-07-29T06:05:53.355Z,4.60
2022-07-29T06:06:56.576Z,4.70
2022-07-29T06:07:59.688Z,4.40
2022-07-29T06:09:11.550Z,4.60
2022-07-29T06:10:15.819Z,4.50
2022-07-29T06:11:18.913Z,4.60
2022-07-29T06:12:22.470Z,4.70
2022-07-29T06:13:26.689Z,4.40
2022-07-29T06:14:29.887Z,4.60
2022-07-29T06:15:33.336Z,4.20
2022-07-29T06:16:36.824Z,4.40
2022-07-29T06:17:39.983Z,4.60
2022-07-29T06:19:03.024Z,4.70
2022-07-29T06:20:07.535Z,4.80
2022-07-29T06:21:11.375Z,4.70
2022-07-29T06:22:17.309Z,4.60
2022-07-29T06:23:21.864Z,4.40
2022-07-29T06:24:24.950Z,4.80
2022-07-29T06:25:31.999Z,4.70
2022-07-29T06:26:39.221Z,4.70
2022-07-29T06:27:45.839Z,4.90
2022-07-29T06:28:49.069Z,4.70
2022-07-29T06:29:53.628Z,4.50
2022-07-29T06:30:56.854Z,4.80
2022-07-29T06:32:00.060Z,4.70
2022-07-29T06:33:04.077Z,4.70
2022-07-29T06:34:07.732Z,4.70
2022-07-29T06:35:38.283Z,5.00
2022-07-29T06:36:37.999Z,4.80
2022-07-29T06:37:43.009Z,4.50
2022-07-29T06:38:49.396Z,4.50
2022-07-29T06:40:14.732Z,4.80
2022-07-29T06:41:17.936Z,4.50
2022-07-29T06:42:21.028Z,4.40
2022-07-29T06:43:24.203Z,4.40
2022-07-29T06:44:31.680Z,4.40
2022-07-29T06:45:39.815Z,4.70
2022-07-29T06:46:43.120Z,4.20
2022-07-29T06:47:46.279Z,4.70
2022-07-29T06:48:50.350Z,4.50
2022-07-29T06:49:54.184Z,4.50
2022-07-29T06:50:57.456Z,4.90
2022-07-29T06:52:00.803Z,4.60
2022-07-29T06:53:04.713Z,4.70
2022-07-29T06:54:07.846Z,4.60
2022-07-29T06:55:11.349Z,5.00
2022-07-29T06:56:28.304Z,4.90
2022-07-29T06:57:31.624Z,5.00
2022-07-29T06:58:35.054Z,4.80
2022-07-29T06:59:38.134Z,4.80
2022-07-29T07:00:41.735Z,4.40
2022-07-29T07:01:45.997Z,5.10
2022-07-29T07:02:49.330Z,4.90
2022-07-29T07:03:52.489Z,4.60
2022-07-29T07:04:55.540Z,4.50
2022-07-29T07:05:59.082Z,4.50
2022-07-29T07:07:03.763Z,5.10
2022-07-29T07:08:07.246Z,4.10
2022-07-29T07:09:10.340Z,4.40
2022-07-29T07:10:13.628Z,4.20
2022-07-29T07:11:16.739Z,4.30
2022-07-29T07:12:20.057Z,4.40
2022-07-29T07:13:24.689Z,4.10
2022-07-29T07:14:29.104Z,4.20
2022-07-29T07:15:39.938Z,4.10
2022-07-29T07:17:46.530Z,4.30
2022-07-29T07:18:49.704Z,4.20
2022-07-29T07:19:52.770Z,4.10
2022-07-29T07:20:56.962Z,4.30
2022-07-29T07:22:00.915Z,3.80
2022-07-29T07:23:05.739Z,4.20
2022-07-29T07:24:09.093Z,4.10
2022-07-29T07:25:13.300Z,4.10
2022-07-29T07:26:16.768Z,4.30
2022-07-29T07:27:19.876Z,4.30
2022-07-29T07:28:24.470Z,4.30
2022-07-29T07:29:28.337Z,4.40
2022-07-29T07:30:32.106Z,4.30
2022-07-29T07:31:35.320Z,4.00
2022-07-29T07:32:38.753Z,4.20
2022-07-29T07:33:41.894Z,4.30
2022-07-29T07:34:45.112Z,4.30
2022-07-29T07:35:48.582Z,4.40
2022-07-29T07:36:51.649Z,4.20
2022-07-29T07:37:56.104Z,4.20
2022-07-29T07:38:59.263Z,4.40
2022-07-29T07:40:03.228Z,4.30
2022-07-29T07:41:09.413Z,4.80
2022-07-29T07:42:13.993Z,4.70
2022-07-29T07:43:17.154Z,4.40
2022-07-29T07:44:20.533Z,4.60
2022-07-29T07:45:24.159Z,4.50
2022-07-29T07:46:27.326Z,4.60
2022-07-29T07:47:30.520Z,4.60
2022-07-29T07:48:37.531Z,4.40
2022-07-29T07:49:40.762Z,4.30
2022-07-29T07:50:45.388Z,4.70
2022-07-29T07:51:50.721Z,4.50
2022-07-29T07:52:56.239Z,4.30
2022-07-29T07:53:59.724Z,4.70
2022-07-29T07:55:02.996Z,4.60
2022-07-29T07:56:12.431Z,4.50
2022-07-29T07:57:16.540Z,4.40
2022-07-29T07:58:19.704Z,4.40
2022-07-29T07:59:22.893Z,4.80
2022-07-29T08:00:26.083Z,4.70
2022-07-29T08:01:29.240Z,4.80
2022-07-29T08:02:52.116Z,5.00
2022-07-29T08:03:55.431Z,4.90
2022-07-29T08:04:58.450Z,4.80
2022-07-29T08:06:02.073Z,5.00
2022-07-29T08:07:05.634Z,4.50
2022-07-29T08:08:09.259Z,4.70
2022-07-29T08:09:28.084Z,4.90
2022-07-29T08:10:52.174Z,5.10
2022-07-29T08:11:56.164Z,4.60
2022-07-29T08:13:00.691Z,4.90
2022-07-29T08:14:06.567Z,5.00
2022-07-29T08:15:10.152Z,5.10
2022-07-29T08:16:13.934Z,4.70
2022-07-29T08:17:17.507Z,4.90
2022-07-29T08:18:20.518Z,4.60
2022-07-29T08:19:23.573Z,4.70
2022-07-29T08:20:27.738Z,4.80
2022-07-29T08:21:30.790Z,4.70
2022-07-29T08:22:33.841Z,4.40
2022-07-29T08:23:45.961Z,4.50
2022-07-29T08:24:57.743Z,4.40
2022-07-29T08:26:00.932Z,4.50
2022-07-29T08:27:12.855Z,4.60
2022-07-29T08:28:27.516Z,4.40
2022-07-29T08:29:30.610Z,4.40
2022-07-29T08:30:34.988Z,4.60
2022-07-29T08:31:38.843Z,4.60
2022-07-29T08:32:57.640Z,4.50
2022-07-29T08:34:01.137Z,4.90
2022-07-29T08:35:04.538Z,4.70
2022-07-29T08:36:08.303Z,4.80
2022-07-29T08:37:11.470Z,4.60
2022-07-29T08:38:14.629Z,4.60
2022-07-29T08:39:17.662Z,4.70
2022-07-29T08:40:32.081Z,4.80
2022-07-29T08:41:36.534Z,4.70
2022-07-29T08:42:39.559Z,5.00
2022-07-29T08:43:43.003Z,5.00
2022-07-29T08:44:46.373Z,5.00
2022-07-29T08:45:51.986Z,5.00
2022-07-29T08:46:55.263Z,5.10
2022-07-29T08:47:58.843Z,4.70
2022-07-29T08:49:03.472Z,4.90
2022-07-29T08:50:08.566Z,4.80
2022-07-29T08:51:16.234Z,4.80
2022-07-29T08:52:20.987Z,4.80
2022-07-29T08:53:27.900Z,4.90
2022-07-29T08:54:31.625Z,4.70
2022-07-29T08:55:35.398Z,5.00
2022-07-29T08:56:40.712Z,4.70
2022-07-29T08:57:51.923Z,4.60
2022-07-29T08:58:59.563Z,4.70
2022-07-29T09:00:08.129Z,5.10
2022-07-29T09:01:22.064Z,5.20
2022-07-29T09:02:29.417Z,5.80
2022-07-29T09:03:35.703Z,5.30
2022-07-29T09:04:39.489Z,4.90
2022-07-29T09:05:47.779Z,4.90
2022-07-29T09:06:55.555Z,4.90
2022-07-29T09:07:58.845Z,5.20
2022-07-29T09:09:02.160Z,5.40
2022-07-29T09:10:06.542Z,4.70
2022-07-29T09:11:09.725Z,4.70
2022-07-29T09:12:13.535Z,5.60
2022-07-29T09:13:32.863Z,5.10
2022-07-29T09:14:35.943Z,5.00
2022-07-29T09:15:39.053Z,4.90
2022-07-29T09:17:01.142Z,4.90
2022-07-29T09:18:05.246Z,5.10
2022-07-29T09:19:31.145Z,5.40
2022-07-29T09:20:52.927Z,5.30
2022-07-29T09:22:03.515Z,5.30
2022-07-29T09:24:14.269Z,5.20
2022-07-29T09:25:38.286Z,5.00
2022-07-29T09:26:47.050Z,5.40
2022-07-29T09:27:52.158Z,5.90
2022-07-29T09:28:55.597Z,6.10
2022-07-29T09:30:06.988Z,5.60
2022-07-29T09:31:10.272Z,5.30
2022-07-29T09:32:13.589Z,5.70
2022-07-29T09:33:16.688Z,5.60
2022-07-29T09:34:29.656Z,6.00
2022-07-29T09:35:33.094Z,5.40
2022-07-29T09:36:56.229Z,5.40
2022-07-29T09:38:11.868Z,5.80
2022-07-29T09:39:17.783Z,5.60
2022-07-29T09:40:23.927Z,5.40
2022-07-29T09:41:28.189Z,5.40
2022-07-29T09:42:33.625Z,5.70
2022-07-29T09:43:37.114Z,5.30
2022-07-29T09:44:43.498Z,5.50
2022-07-29T09:45:48.559Z,4.90
2022-07-29T09:46:59.272Z,5.10
2022-07-29T09:48:18.423Z,5.00
2022-07-29T09:49:21.699Z,4.90
2022-07-29T09:50:44.984Z,5.00
2022-07-29T09:51:48.685Z,5.20
2022-07-29T09:52:54.466Z,5.30
2022-07-29T09:53:57.669Z,5.20
2022-07-29T09:55:17.843Z,5.10
2022-07-29T09:56:21.439Z,5.10
2022-07-29T09:57:30.789Z,5.10
2022-07-29T09:58:35.146Z,4.80
2022-07-29T09:59:49.871Z,4.90
2022-07-29T10:00:56.111Z,4.50
2022-07-29T10:01:59.469Z,4.60
2022-07-29T10:03:03.842Z,4.70
2022-07-29T10:04:07.038Z,4.20
2022-07-29T10:05:25.147Z,4.70
2022-07-29T10:06:28.473Z,4.40
2022-07-29T10:07:53.485Z,4.80
2022-07-29T10:09:09.672Z,4.80
2022-07-29T10:10:20.894Z,4.50
2022-07-29T10:11:24.021Z,4.60
2022-07-29T10:12:27.165Z,4.40
2022-07-29T10:13:30.540Z,4.80
2022-07-29T10:14:34.651Z,4.60
2022-07-29T10:15:44.630Z,4.70
2022-07-29T10:16:48.070Z,4.60
2022-07-29T10:17:52.890Z,4.90
2022-07-29T10:18:56.633Z,5.10
2022-07-29T10:19:59.805Z,4.70
2022-07-29T10:21:03.146Z,4.70
2022-07-29T10:22:11.199Z,4.60
2022-07-29T10:23:15.171Z,4.90
2022-07-29T10:24:18.599Z,4.80
2022-07-29T10:25:22.287Z,4.90
2022-07-29T10:26:26.001Z,4.60
2022-07-29T10:27:29.133Z,4.50
2022-07-29T10:28:36.185Z,4.90
2022-07-29T10:29:39.305Z,4.50
2022-07-29T10:30:45.567Z,4.50
2022-07-29T10:32:03.430Z,4.50
2022-07-29T10:33:06.634Z,4.50
2022-07-29T10:34:20.372Z,4.10
2022-07-29T10:35:39.202Z,4.30
2022-07-29T10:37:19.657Z,4.40
2022-07-29T10:39:09.774Z,4.40
2022-07-29T10:40:45.737Z,5.10
2022-07-29T10:41:51.425Z,5.40
2022-07-29T10:43:02.370Z,4.60
2022-07-29T10:44:14.769Z,4.60
2022-07-29T10:45:20.980Z,4.50
2022-07-29T10:46:25.553Z,4.50
2022-07-29T10:47:29.313Z,4.50
2022-07-29T10:48:32.765Z,4.50
2022-07-29T10:49:35.895Z,4.30
2022-07-29T10:50:58.091Z,4.80
2022-07-29T10:52:09.148Z,4.10
2022-07-29T10:54:37.285Z,4.10
2022-07-29T10:55:47.756Z,4.40
2022-07-29T10:56:51.156Z,4.20
2022-07-29T10:58:19.522Z,4.10
2022-07-29T11:00:49.410Z,4.20
2022-07-29T11:01:54.398Z,4.00
2022-07-29T11:03:10.507Z,3.80
2022-07-29T11:04:14.320Z,3.70
2022-07-29T11:05:22.311Z,3.40
2022-07-29T11:06:28.221Z,3.60
2022-07-29T11:07:45.823Z,3.60
2022-07-29T11:09:16.663Z,3.20
2022-07-29T11:10:20.172Z,3.20
2022-07-29T11:11:30.007Z,2.70
2022-07-29T11:12:39.556Z,2.40
2022-07-29T11:13:51.281Z,2.50
2022-07-29T11:14:58.975Z,2.60
2022-07-29T11:16:02.262Z,2.70
2022-07-29T11:17:09.194Z,2.70
2022-07-29T11:18:14.989Z,2.40
2022-07-29T11:19:29.795Z,2.60
2022-07-29T11:20:50.130Z,2.50
2022-07-29T11:21:58.320Z,2.30
2022-07-29T11:23:02.461Z,2.40
2022-07-29T11:24:18.606Z,2.00
2022-07-29T11:25:42.867Z,2.20
2022-07-29T11:27:17.940Z,2.00
2022-07-29T11:29:50.423Z,2.00
2022-07-29T11:30:56.302Z,2.10
2022-07-29T11:32:18.107Z,2.20
2022-07-29T11:33:37.407Z,2.00
2022-07-29T11:36:28.011Z,2.00
2022-07-29T11:37:32.094Z,2.20
2022-07-29T11:38:45.788Z,2.00
2022-07-29T11:39:54.396Z,1.90
2022-07-29T11:41:19.122Z,2.10
2022-07-29T11:43:59.402Z,2.10
2022-07-29T11:45:41.520Z,1.90
2022-07-29T11:46:50.519Z,2.10
2022-07-29T11:47:56.102Z,1.90
2022-07-29T11:48:59.638Z,2.10
2022-07-29T11:50:04.938Z,2.00
2022-07-29T11:51:13.419Z,1.80
2022-07-29T11:52:16.657Z,2.00
2022-07-29T11:53:19.837Z,1.80
2022-07-29T11:54:27.861Z,2.00
2022-07-29T11:55:37.049Z,1.60
2022-07-29T11:56:55.182Z,1.60
2022-07-29T11:58:03.711Z,1.70
2022-07-29T11:59:10.463Z,1.60
2022-07-29T12:00:32.229Z,1.60
2022-07-29T12:01:35.547Z,1.60
2022-07-29T12:02:48.182Z,1.60
2022-07-29T12:04:04.508Z,1.60
2022-07-29T12:05:12.199Z,1.60
2022-07-29T12:06:17.964Z,1.70
2022-07-29T12:07:01.387Z,2.10
2022-07-29T12:07:34.780Z,1.50
2022-07-29T12:08:43.713Z,1.50
2022-07-29T12:09:56.803Z,1.30
2022-07-29T12:11:00.955Z,1.60
2022-07-29T12:12:05.955Z,1.80
2022-07-29T12:13:10.280Z,1.60
2022-07-29T12:14:26.194Z,1.50
2022-07-29T12:15:39.185Z,1.60
2022-07-29T12:16:49.544Z,1.40
2022-07-29T12:17:53.187Z,1.60
2022-07-29T12:19:00.453Z,1.50
2022-07-29T12:20:06.257Z,1.40
2022-07-29T12:21:12.480Z,1.50
2022-07-29T12:22:27.183Z,1.30
2022-07-29T12:23:35.421Z,1.40
2022-07-29T12:24:45.427Z,1.40
2022-07-29T12:25:49.789Z,1.70
2022-07-29T12:26:54.074Z,1.60
2022-07-29T12:28:06.960Z,1.50
2022-07-29T12:29:20.502Z,1.40
2022-07-29T12:30:49.828Z,1.60
2022-07-29T12:31:57.978Z,1.60
2022-07-29T12:33:01.426Z,1.60
2022-07-29T12:34:04.743Z,1.50
2022-07-29T12:35:17.149Z,1.50
2022-07-29T12:36:20.398Z,1.60
2022-07-29T12:37:30.947Z,1.50
2022-07-29T12:38:44.719Z,1.60
2022-07-29T12:39:48.077Z,1.50
2022-07-29T12:40:53.093Z,1.60
2022-07-29T12:42:04.520Z,1.50
2022-07-29T12:43:12.659Z,1.40
2022-07-29T12:44:15.965Z,1.40
2022-07-29T12:45:30.088Z,1.50
2022-07-29T12:46:33.306Z,1.40
2022-07-29T12:47:53.329Z,1.70
2022-07-29T12:48:57.730Z,1.60
2022-07-29T12:50:24.472Z,1.70
2022-07-29T12:51:40.645Z,1.70
2022-07-29T12:52:43.824Z,1.50
2022-07-29T12:54:17.408Z,1.50
2022-07-29T12:55:49.909Z,1.60
2022-07-29T12:57:00.965Z,1.60
2022-07-29T12:58:04.367Z,1.30
2022-07-29T12:59:20.132Z,1.30
2022-07-29T13:00:25.431Z,1.50
2022-07-29T13:01:37.875Z,1.40
2022-07-29T13:02:43.678Z,1.50
2022-07-29T13:03:56.849Z,1.60
2022-07-29T13:05:02.121Z,1.50
2022-07-29T13:06:05.314Z,1.60
2022-07-29T13:07:09.292Z,1.60
2022-07-29T13:08:20.406Z,1.60
2022-07-29T13:09:38.317Z,1.60
2022-07-29T13:10:41.828Z,1.50
2022-07-29T13:11:50.894Z,1.70
2022-07-29T13:13:11.416Z,1.60
2022-07-29T13:14:30.327Z,1.60
2022-07-29T13:15:35.083Z,1.50
2022-07-29T13:16:59.510Z,1.70
2022-07-29T13:18:04.094Z,1.40
2022-07-29T13:19:17.380Z,1.50
2022-07-29T13:20:25.544Z,1.70
2022-07-29T13:21:28.637Z,1.50
2022-07-29T13:22:32.017Z,1.60
2022-07-29T13:23:38.413Z,1.50
2022-07-29T13:24:55.148Z,1.60
2022-07-29T13:26:08.499Z,1.50
2022-07-29T13:27:11.655Z,1.60
2022-07-29T13:28:14.885Z,1.40
2022-07-29T13:29:18.066Z,1.50
2022-07-29T13:30:22.702Z,1.70
2022-07-29T13:31:25.885Z,1.40
2022-07-29T13:32:31.039Z,1.50
2022-07-29T13:33:34.065Z,1.80
2022-07-29T13:34:37.150Z,1.70
2022-07-29T13:35:40.386Z,1.80
2022-07-29T13:36:43.562Z,1.60
2022-07-29T13:37:48.608Z,1.80
2022-07-29T13:38:58.094Z,1.60
2022-07-29T13:40:01.498Z,1.70
2022-07-29T13:42:05.872Z,1.40
2022-07-29T13:43:11.969Z,1.50
2022-07-29T13:44:22.977Z,1.60
2022-07-29T13:45:36.850Z,1.80
2022-07-29T13:46:40.139Z,1.50
2022-07-29T13:47:47.686Z,1.70
2022-07-29T13:49:12.618Z,1.90
2022-07-29T13:50:19.311Z,1.30
2022-07-29T13:51:22.488Z,1.60
2022-07-29T13:52:25.748Z,1.60
2022-07-29T13:53:29.819Z,1.60
2022-07-29T13:54:32.872Z,1.70
2022-07-29T13:55:36.061Z,1.50
2022-07-29T13:56:39.366Z,1.80
2022-07-29T14:01:05.260Z,1.70
2022-07-29T14:03:53.369Z,1.70
2022-07-29T14:04:56.630Z,1.80
2022-07-29T14:06:01.403Z,1.60
2022-07-29T14:07:05.448Z,1.50
2022-07-29T14:08:09.034Z,1.70
2022-07-29T14:09:12.046Z,1.70
2022-07-29T14:10:19.931Z,1.50
2022-07-29T14:11:23.291Z,1.70
2022-07-29T14:12:26.402Z,1.90
2022-07-29T14:13:29.698Z,1.70
2022-07-29T14:14:33.659Z,1.70
2022-07-29T14:15:39.316Z,1.50
2022-07-29T14:16:47.553Z,1.40
2022-07-29T14:17:52.341Z,1.60
2022-07-29T14:18:55.346Z,1.60
2022-07-29T14:19:58.441Z,1.50
2022-07-29T14:21:04.116Z,2.80
2022-07-29T14:22:08.966Z,1.90
2022-07-29T14:23:12.979Z,1.40
2022-07-29T14:24:21.777Z,1.60
2022-07-29T14:25:26.950Z,1.60
2022-07-29T14:26:30.182Z,1.50
2022-07-29T14:27:37.410Z,1.40
2022-07-29T14:28:42.049Z,1.50
2022-07-29T14:29:45.283Z,1.60
2022-07-29T14:30:48.446Z,1.60
2022-07-29T14:31:51.694Z,1.50
2022-07-29T14:33:19.876Z,1.50
2022-07-29T14:34:35.704Z,1.40
2022-07-29T14:35:38.900Z,1.50
2022-07-29T14:36:42.253Z,1.40
2022-07-29T14:37:45.320Z,1.50
2022-07-29T14:38:48.440Z,1.50
2022-07-29T14:39:51.538Z,1.50
2022-07-29T14:40:54.895Z,1.70
2022-07-29T14:41:58.413Z,1.60
2022-07-29T14:43:02.907Z,1.50
2022-07-29T14:44:06.176Z,1.60
2022-07-29T14:45:10.787Z,1.50
2022-07-29T14:46:13.879Z,1.60
2022-07-29T14:47:17.001Z,1.70
2022-07-29T14:48:20.197Z,1.60
2022-07-29T14:49:23.311Z,1.50
2022-07-29T14:50:31.641Z,1.40
2022-07-29T14:51:35.360Z,1.50
2022-07-29T14:52:39.099Z,1.50
2022-07-29T14:53:42.125Z,1.30
2022-07-29T14:54:45.172Z,1.60
2022-07-29T14:55:48.315Z,1.50
2022-07-29T14:56:52.087Z,1.60
2022-07-29T14:58:03.091Z,1.30
2022-07-29T14:59:09.125Z,1.30
2022-07-29T15:00:12.829Z,1.40
2022-07-29T15:01:16.002Z,1.40
2022-07-29T15:02:19.199Z,1.80
2022-07-29T15:03:24.285Z,1.50
2022-07-29T15:04:27.670Z,1.70
2022-07-29T15:05:32.315Z,1.40
2022-07-29T15:06:35.440Z,1.50
2022-07-29T15:07:38.771Z,1.30
2022-07-29T15:08:41.868Z,1.60
2022-07-29T15:09:49.762Z,1.50
2022-07-29T15:10:53.453Z,2.00